sensor_id;sensor_type;location;lat;lon;timestamp;temperature;humidity
28520;DHT22;15732;48.534;20.382;2023-12-20T00:01:15;2.60;99.90
28520;DHT22;15732;48.534;20.382;2023-12-20T00:03:42;2.60;99.90
28520;DHT22;15732;48.534;20.382;2023-12-20T00:06:09;2.50;99.90
28520;DHT22;15732;48.534;20.382;2023-12-20T00:08:40;2.50;99.90
28520;DHT22;15732;48.534;20.382;2023-12-20T00:11:07;2.40;99.90
28520;DHT22;15732;48.534;20.382;2023-12-20T00:13:35;2.40;99.90
28520;DHT22;15732;48.534;20.382;2023-12-20T00:16:06;2.40;99.90
28520;DHT22;15732;48.534;20.382;2023-12-20T00:18:33;2.40;99.90
28520;DHT22;15732;48.534;20.382;2023-12-20T00:21:05;2.40;99.90
28520;DHT22;15732;48.534;20.382;2023-12-20T00:23:32;2.30;99.90
28520;DHT22;15732;48.534;20.382;2023-12-20T00:25:59;2.30;99.90
28520;DHT22;15732;48.534;20.382;2023-12-20T00:28:27;2.30;99.90
28520;DHT22;15732;48.534;20.382;2023-12-20T00:30:53;2.30;99.90
28520;DHT22;15732;48.534;20.382;2023-12-20T00:33:20;2.30;99.90
28520;DHT22;15732;48.534;20.382;2023-12-20T00:35:48;2.30;99.90
28520;DHT22;15732;48.534;20.382;2023-12-20T00:38:19;2.30;99.90
28520;DHT22;15732;48.534;20.382;2023-12-20T00:40:46;2.30;99.90
28520;DHT22;15732;48.534;20.382;2023-12-20T00:43:14;2.30;99.90
28520;DHT22;15732;48.534;20.382;2023-12-20T00:45:41;2.30;99.90
28520;DHT22;15732;48.534;20.382;2023-12-20T00:48:08;2.30;99.90
28520;DHT22;15732;48.534;20.382;2023-12-20T00:50:39;2.30;99.90
28520;DHT22;15732;48.534;20.382;2023-12-20T00:53:10;2.30;99.90
28520;DHT22;15732;48.534;20.382;2023-12-20T00:55:41;2.30;99.90
28520;DHT22;15732;48.534;20.382;2023-12-20T00:58:14;2.30;99.90
28520;DHT22;15732;48.534;20.382;2023-12-20T01:00:45;2.30;99.90
28520;DHT22;15732;48.534;20.382;2023-12-20T01:03:13;2.20;99.90
28520;DHT22;15732;48.534;20.382;2023-12-20T01:05:41;2.20;99.90
28520;DHT22;15732;48.534;20.382;2023-12-20T01:08:13;2.10;99.90
28520;DHT22;15732;48.534;20.382;2023-12-20T01:10:44;2.10;99.90
28520;DHT22;15732;48.534;20.382;2023-12-20T01:13:16;2.10;99.90
28520;DHT22;15732;48.534;20.382;2023-12-20T01:15:47;2.10;99.90
28520;DHT22;15732;48.534;20.382;2023-12-20T01:18:18;2.10;99.90
28520;DHT22;15732;48.534;20.382;2023-12-20T01:20:49;2.10;99.90
28520;DHT22;15732;48.534;20.382;2023-12-20T01:23:20;2.00;99.90
28520;DHT22;15732;48.534;20.382;2023-12-20T01:25:51;2.10;99.90
28520;DHT22;15732;48.534;20.382;2023-12-20T01:28:23;2.10;99.90
28520;DHT22;15732;48.534;20.382;2023-12-20T01:30:54;2.10;99.90
28520;DHT22;15732;48.534;20.382;2023-12-20T01:33:25;2.10;99.90
28520;DHT22;15732;48.534;20.382;2023-12-20T01:35:56;2.10;99.90
28520;DHT22;15732;48.534;20.382;2023-12-20T01:38:28;2.10;99.90
28520;DHT22;15732;48.534;20.382;2023-12-20T01:40:59;2.00;99.90
28520;DHT22;15732;48.534;20.382;2023-12-20T01:43:26;2.10;99.90
28520;DHT22;15732;48.534;20.382;2023-12-20T01:45:57;2.10;99.90
28520;DHT22;15732;48.534;20.382;2023-12-20T01:48:27;2.10;99.90
28520;DHT22;15732;48.534;20.382;2023-12-20T01:50:55;2.10;99.90
28520;DHT22;15732;48.534;20.382;2023-12-20T01:53:26;2.20;99.90
28520;DHT22;15732;48.534;20.382;2023-12-20T01:55:56;2.20;99.90
28520;DHT22;15732;48.534;20.382;2023-12-20T01:58:28;2.30;99.90
28520;DHT22;15732;48.534;20.382;2023-12-20T02:00:56;2.30;99.90
28520;DHT22;15732;48.534;20.382;2023-12-20T02:03:24;2.30;99.90
28520;DHT22;15732;48.534;20.382;2023-12-20T02:05:51;2.20;99.90
28520;DHT22;15732;48.534;20.382;2023-12-20T02:08:18;2.20;99.90
28520;DHT22;15732;48.534;20.382;2023-12-20T02:10:45;2.20;99.90
28520;DHT22;15732;48.534;20.382;2023-12-20T02:13:13;2.20;99.90
28520;DHT22;15732;48.534;20.382;2023-12-20T02:15:44;2.20;99.90
28520;DHT22;15732;48.534;20.382;2023-12-20T02:18:11;2.20;99.90
28520;DHT22;15732;48.534;20.382;2023-12-20T02:20:42;2.20;99.90
28520;DHT22;15732;48.534;20.382;2023-12-20T02:23:09;2.20;99.90
28520;DHT22;15732;48.534;20.382;2023-12-20T02:25:36;2.20;99.90
28520;DHT22;15732;48.534;20.382;2023-12-20T02:28:05;2.20;99.90
28520;DHT22;15732;48.534;20.382;2023-12-20T02:30:32;2.20;99.90
28520;DHT22;15732;48.534;20.382;2023-12-20T02:33:00;2.10;99.90
28520;DHT22;15732;48.534;20.382;2023-12-20T02:35:28;2.10;99.90
28520;DHT22;15732;48.534;20.382;2023-12-20T02:37:55;2.20;99.90
28520;DHT22;15732;48.534;20.382;2023-12-20T02:40:26;2.10;99.90
28520;DHT22;15732;48.534;20.382;2023-12-20T02:42:54;2.10;99.90
28520;DHT22;15732;48.534;20.382;2023-12-20T02:45:21;2.10;99.90
28520;DHT22;15732;48.534;20.382;2023-12-20T02:47:48;2.20;99.90
28520;DHT22;15732;48.534;20.382;2023-12-20T02:50:19;2.20;99.90
28520;DHT22;15732;48.534;20.382;2023-12-20T02:52:50;2.20;99.90
28520;DHT22;15732;48.534;20.382;2023-12-20T02:55:21;2.20;99.90
28520;DHT22;15732;48.534;20.382;2023-12-20T02:57:52;2.20;99.90
28520;DHT22;15732;48.534;20.382;2023-12-20T03:00:24;2.20;99.90
28520;DHT22;15732;48.534;20.382;2023-12-20T03:02:51;2.20;99.90
28520;DHT22;15732;48.534;20.382;2023-12-20T03:05:18;2.20;99.90
28520;DHT22;15732;48.534;20.382;2023-12-20T03:07:45;2.20;99.90
28520;DHT22;15732;48.534;20.382;2023-12-20T03:10:16;2.20;99.90
28520;DHT22;15732;48.534;20.382;2023-12-20T03:12:47;2.20;99.90
28520;DHT22;15732;48.534;20.382;2023-12-20T03:15:15;2.20;99.90
28520;DHT22;15732;48.534;20.382;2023-12-20T03:17:42;2.20;99.90
28520;DHT22;15732;48.534;20.382;2023-12-20T03:20:14;2.20;99.90
28520;DHT22;15732;48.534;20.382;2023-12-20T03:22:41;2.20;99.90
28520;DHT22;15732;48.534;20.382;2023-12-20T03:25:09;2.20;99.90
28520;DHT22;15732;48.534;20.382;2023-12-20T03:27:40;2.20;99.90
28520;DHT22;15732;48.534;20.382;2023-12-20T03:30:11;2.10;99.90
28520;DHT22;15732;48.534;20.382;2023-12-20T03:32:39;2.10;99.90
28520;DHT22;15732;48.534;20.382;2023-12-20T03:35:07;2.10;99.90
28520;DHT22;15732;48.534;20.382;2023-12-20T03:37:34;2.10;99.90
28520;DHT22;15732;48.534;20.382;2023-12-20T03:40:01;2.10;99.90
28520;DHT22;15732;48.534;20.382;2023-12-20T03:42:29;2.10;99.90
28520;DHT22;15732;48.534;20.382;2023-12-20T03:45:00;2.10;99.90
28520;DHT22;15732;48.534;20.382;2023-12-20T03:47:27;2.20;99.90
28520;DHT22;15732;48.534;20.382;2023-12-20T03:49:58;2.30;99.90
28520;DHT22;15732;48.534;20.382;2023-12-20T03:52:25;2.30;99.90
28520;DHT22;15732;48.534;20.382;2023-12-20T03:54:56;2.30;99.90
28520;DHT22;15732;48.534;20.382;2023-12-20T03:57:28;2.30;99.90
28520;DHT22;15732;48.534;20.382;2023-12-20T03:59:59;2.30;99.90
28520;DHT22;15732;48.534;20.382;2023-12-20T04:02:30;2.40;99.90
28520;DHT22;15732;48.534;20.382;2023-12-20T04:05:01;2.40;99.90
28520;DHT22;15732;48.534;20.382;2023-12-20T04:07:29;2.30;99.90
28520;DHT22;15732;48.534;20.382;2023-12-20T04:09:59;2.30;99.90
28520;DHT22;15732;48.534;20.382;2023-12-20T04:12:30;2.30;99.90
28520;DHT22;15732;48.534;20.382;2023-12-20T04:15:02;2.20;99.90
28520;DHT22;15732;48.534;20.382;2023-12-20T04:17:35;2.20;99.90
28520;DHT22;15732;48.534;20.382;2023-12-20T04:20:08;2.20;99.90
28520;DHT22;15732;48.534;20.382;2023-12-20T04:22:36;2.20;99.90
28520;DHT22;15732;48.534;20.382;2023-12-20T04:25:04;2.20;99.90
28520;DHT22;15732;48.534;20.382;2023-12-20T04:27:31;2.10;99.90
28520;DHT22;15732;48.534;20.382;2023-12-20T04:29:59;2.10;99.90
28520;DHT22;15732;48.534;20.382;2023-12-20T04:32:26;2.10;99.90
28520;DHT22;15732;48.534;20.382;2023-12-20T04:34:53;2.00;99.90
28520;DHT22;15732;48.534;20.382;2023-12-20T04:37:20;2.00;99.90
28520;DHT22;15732;48.534;20.382;2023-12-20T04:39:52;2.00;99.90
28520;DHT22;15732;48.534;20.382;2023-12-20T04:42:19;2.00;99.90
28520;DHT22;15732;48.534;20.382;2023-12-20T04:44:46;2.00;99.90
28520;DHT22;15732;48.534;20.382;2023-12-20T04:47:13;2.00;99.90
28520;DHT22;15732;48.534;20.382;2023-12-20T04:49:41;2.00;99.90
28520;DHT22;15732;48.534;20.382;2023-12-20T04:52:08;2.00;99.90
28520;DHT22;15732;48.534;20.382;2023-12-20T04:54:39;2.00;99.90
28520;DHT22;15732;48.534;20.382;2023-12-20T04:57:10;2.00;99.90
28520;DHT22;15732;48.534;20.382;2023-12-20T04:59:41;2.00;99.90
28520;DHT22;15732;48.534;20.382;2023-12-20T05:02:13;2.00;99.90
28520;DHT22;15732;48.534;20.382;2023-12-20T05:04:40;2.00;99.90
28520;DHT22;15732;48.534;20.382;2023-12-20T05:07:08;2.10;99.90
28520;DHT22;15732;48.534;20.382;2023-12-20T05:09:38;2.10;99.90
28520;DHT22;15732;48.534;20.382;2023-12-20T05:12:10;2.20;99.90
28520;DHT22;15732;48.534;20.382;2023-12-20T05:14:41;2.20;99.90
28520;DHT22;15732;48.534;20.382;2023-12-20T05:17:09;2.20;99.90
28520;DHT22;15732;48.534;20.382;2023-12-20T05:19:40;2.20;99.90
28520;DHT22;15732;48.534;20.382;2023-12-20T05:22:07;2.20;99.90
28520;DHT22;15732;48.534;20.382;2023-12-20T05:24:38;2.10;99.90
28520;DHT22;15732;48.534;20.382;2023-12-20T05:27:05;2.10;99.90
28520;DHT22;15732;48.534;20.382;2023-12-20T05:29:33;2.10;99.90
28520;DHT22;15732;48.534;20.382;2023-12-20T05:32:00;2.20;99.90
28520;DHT22;15732;48.534;20.382;2023-12-20T05:34:32;2.20;99.90
28520;DHT22;15732;48.534;20.382;2023-12-20T05:37:00;2.10;99.90
28520;DHT22;15732;48.534;20.382;2023-12-20T05:39:28;2.10;99.90
28520;DHT22;15732;48.534;20.382;2023-12-20T05:41:55;2.00;99.90
28520;DHT22;15732;48.534;20.382;2023-12-20T05:44:22;1.90;99.90
28520;DHT22;15732;48.534;20.382;2023-12-20T05:46:50;1.80;99.90
28520;DHT22;15732;48.534;20.382;2023-12-20T05:49:17;1.70;99.90
28520;DHT22;15732;48.534;20.382;2023-12-20T05:51:44;1.60;99.90
28520;DHT22;15732;48.534;20.382;2023-12-20T05:54:12;1.50;99.90
28520;DHT22;15732;48.534;20.382;2023-12-20T05:56:39;1.50;99.90
28520;DHT22;15732;48.534;20.382;2023-12-20T05:59:10;1.40;99.90
28520;DHT22;15732;48.534;20.382;2023-12-20T06:01:41;1.40;99.90
28520;DHT22;15732;48.534;20.382;2023-12-20T06:04:12;1.40;99.90
28520;DHT22;15732;48.534;20.382;2023-12-20T06:06:44;1.40;99.90
28520;DHT22;15732;48.534;20.382;2023-12-20T06:09:14;1.40;99.90
28520;DHT22;15732;48.534;20.382;2023-12-20T06:11:45;1.50;99.90
28520;DHT22;15732;48.534;20.382;2023-12-20T06:14:16;1.50;99.90
28520;DHT22;15732;48.534;20.382;2023-12-20T06:16:48;1.50;99.90
28520;DHT22;15732;48.534;20.382;2023-12-20T06:19:19;1.50;99.90
28520;DHT22;15732;48.534;20.382;2023-12-20T06:21:50;1.50;99.90
28520;DHT22;15732;48.534;20.382;2023-12-20T06:24:21;1.50;99.90
28520;DHT22;15732;48.534;20.382;2023-12-20T06:26:57;1.40;99.90
28520;DHT22;15732;48.534;20.382;2023-12-20T06:29:28;1.50;99.90
28520;DHT22;15732;48.534;20.382;2023-12-20T06:32:00;1.50;99.90
28520;DHT22;15732;48.534;20.382;2023-12-20T06:34:31;1.50;99.90
28520;DHT22;15732;48.534;20.382;2023-12-20T06:37:02;1.60;99.90
28520;DHT22;15732;48.534;20.382;2023-12-20T06:39:34;1.60;99.90
28520;DHT22;15732;48.534;20.382;2023-12-20T06:42:05;1.60;99.90
28520;DHT22;15732;48.534;20.382;2023-12-20T06:44:37;1.60;99.90
28520;DHT22;15732;48.534;20.382;2023-12-20T06:47:05;1.70;99.90
28520;DHT22;15732;48.534;20.382;2023-12-20T06:49:36;1.70;99.90
28520;DHT22;15732;48.534;20.382;2023-12-20T06:52:03;1.70;99.90
28520;DHT22;15732;48.534;20.382;2023-12-20T06:54:30;1.70;99.90
28520;DHT22;15732;48.534;20.382;2023-12-20T06:56:58;1.70;99.90
28520;DHT22;15732;48.534;20.382;2023-12-20T06:59:25;1.80;99.90
28520;DHT22;15732;48.534;20.382;2023-12-20T07:01:52;1.80;99.90
28520;DHT22;15732;48.534;20.382;2023-12-20T07:04:20;1.80;99.90
28520;DHT22;15732;48.534;20.382;2023-12-20T07:06:51;1.80;99.90
28520;DHT22;15732;48.534;20.382;2023-12-20T07:09:20;1.80;99.90
28520;DHT22;15732;48.534;20.382;2023-12-20T07:11:47;1.80;99.90
28520;DHT22;15732;48.534;20.382;2023-12-20T07:14:14;1.80;99.90
28520;DHT22;15732;48.534;20.382;2023-12-20T07:16:41;1.80;99.90
28520;DHT22;15732;48.534;20.382;2023-12-20T07:19:09;1.80;99.90
28520;DHT22;15732;48.534;20.382;2023-12-20T07:21:40;1.80;99.90
28520;DHT22;15732;48.534;20.382;2023-12-20T07:24:07;1.80;99.90
28520;DHT22;15732;48.534;20.382;2023-12-20T07:26:35;1.80;99.90
28520;DHT22;15732;48.534;20.382;2023-12-20T07:29:04;1.70;99.90
28520;DHT22;15732;48.534;20.382;2023-12-20T07:31:31;1.70;99.90
28520;DHT22;15732;48.534;20.382;2023-12-20T07:33:58;1.60;99.90
28520;DHT22;15732;48.534;20.382;2023-12-20T07:36:26;1.60;99.90
28520;DHT22;15732;48.534;20.382;2023-12-20T07:38:53;1.50;99.90
28520;DHT22;15732;48.534;20.382;2023-12-20T07:41:21;1.50;99.90
28520;DHT22;15732;48.534;20.382;2023-12-20T07:43:52;1.50;99.90
28520;DHT22;15732;48.534;20.382;2023-12-20T07:46:21;1.50;99.90
28520;DHT22;15732;48.534;20.382;2023-12-20T07:48:51;1.40;99.90
28520;DHT22;15732;48.534;20.382;2023-12-20T07:51:22;1.50;99.90
28520;DHT22;15732;48.534;20.382;2023-12-20T07:53:49;1.50;99.90
28520;DHT22;15732;48.534;20.382;2023-12-20T07:56:20;1.50;99.90
28520;DHT22;15732;48.534;20.382;2023-12-20T07:58:48;1.50;99.90
28520;DHT22;15732;48.534;20.382;2023-12-20T08:01:16;1.50;99.90
28520;DHT22;15732;48.534;20.382;2023-12-20T08:03:44;1.50;99.90
28520;DHT22;15732;48.534;20.382;2023-12-20T08:06:13;1.50;99.90
28520;DHT22;15732;48.534;20.382;2023-12-20T08:08:40;1.40;99.90
28520;DHT22;15732;48.534;20.382;2023-12-20T08:11:08;1.40;99.90
28520;DHT22;15732;48.534;20.382;2023-12-20T08:13:38;1.50;99.90
28520;DHT22;15732;48.534;20.382;2023-12-20T08:16:09;1.50;99.90
28520;DHT22;15732;48.534;20.382;2023-12-20T08:18:36;1.50;99.90
28520;DHT22;15732;48.534;20.382;2023-12-20T08:21:04;1.60;99.90
28520;DHT22;15732;48.534;20.382;2023-12-20T08:23:34;1.60;99.90
28520;DHT22;15732;48.534;20.382;2023-12-20T08:26:07;1.60;99.90
28520;DHT22;15732;48.534;20.382;2023-12-20T08:28:39;1.60;99.90
28520;DHT22;15732;48.534;20.382;2023-12-20T08:31:06;1.60;99.90
28520;DHT22;15732;48.534;20.382;2023-12-20T08:33:44;1.60;99.90
28520;DHT22;15732;48.534;20.382;2023-12-20T08:36:12;1.50;99.90
28520;DHT22;15732;48.534;20.382;2023-12-20T08:38:43;1.50;99.90
28520;DHT22;15732;48.534;20.382;2023-12-20T08:41:10;1.50;99.90
28520;DHT22;15732;48.534;20.382;2023-12-20T08:43:37;1.50;99.90
28520;DHT22;15732;48.534;20.382;2023-12-20T08:46:07;1.50;99.90
28520;DHT22;15732;48.534;20.382;2023-12-20T08:48:36;1.60;99.90
28520;DHT22;15732;48.534;20.382;2023-12-20T08:51:04;1.60;99.90
28520;DHT22;15732;48.534;20.382;2023-12-20T08:53:33;1.60;99.90
28520;DHT22;15732;48.534;20.382;2023-12-20T08:56:05;1.60;99.90
28520;DHT22;15732;48.534;20.382;2023-12-20T08:58:32;1.70;99.90
28520;DHT22;15732;48.534;20.382;2023-12-20T09:01:05;1.70;99.90
28520;DHT22;15732;48.534;20.382;2023-12-20T09:03:32;1.70;99.90
28520;DHT22;15732;48.534;20.382;2023-12-20T09:05:59;1.70;99.90
28520;DHT22;15732;48.534;20.382;2023-12-20T09:08:31;1.70;99.90
28520;DHT22;15732;48.534;20.382;2023-12-20T09:11:03;1.70;99.90
28520;DHT22;15732;48.534;20.382;2023-12-20T09:13:34;1.80;99.90
28520;DHT22;15732;48.534;20.382;2023-12-20T09:16:06;1.80;99.90
28520;DHT22;15732;48.534;20.382;2023-12-20T09:18:37;1.80;99.90
28520;DHT22;15732;48.534;20.382;2023-12-20T09:21:04;1.90;99.90
28520;DHT22;15732;48.534;20.382;2023-12-20T09:23:35;1.90;99.90
28520;DHT22;15732;48.534;20.382;2023-12-20T09:26:07;1.90;99.90
28520;DHT22;15732;48.534;20.382;2023-12-20T09:28:34;1.90;99.90
28520;DHT22;15732;48.534;20.382;2023-12-20T09:31:04;1.90;99.90
28520;DHT22;15732;48.534;20.382;2023-12-20T09:33:36;2.00;99.90
28520;DHT22;15732;48.534;20.382;2023-12-20T09:36:03;2.00;99.90
28520;DHT22;15732;48.534;20.382;2023-12-20T09:38:30;2.00;99.90
28520;DHT22;15732;48.534;20.382;2023-12-20T09:41:01;2.10;99.90
28520;DHT22;15732;48.534;20.382;2023-12-20T09:43:31;2.10;99.90
28520;DHT22;15732;48.534;20.382;2023-12-20T09:46:00;2.10;99.90
28520;DHT22;15732;48.534;20.382;2023-12-20T09:48:30;2.10;99.90
28520;DHT22;15732;48.534;20.382;2023-12-20T09:50:57;2.10;99.90
28520;DHT22;15732;48.534;20.382;2023-12-20T09:53:25;2.20;99.90
28520;DHT22;15732;48.534;20.382;2023-12-20T09:55:58;2.20;99.90
28520;DHT22;15732;48.534;20.382;2023-12-20T09:58:45;2.20;99.90
28520;DHT22;15732;48.534;20.382;2023-12-20T10:01:14;2.20;99.90
28520;DHT22;15732;48.534;20.382;2023-12-20T10:03:43;2.30;99.90
28520;DHT22;15732;48.534;20.382;2023-12-20T10:06:10;2.30;99.90
28520;DHT22;15732;48.534;20.382;2023-12-20T10:08:38;2.30;99.90
28520;DHT22;15732;48.534;20.382;2023-12-20T10:11:06;2.30;99.90
28520;DHT22;15732;48.534;20.382;2023-12-20T10:13:33;2.30;99.90
28520;DHT22;15732;48.534;20.382;2023-12-20T10:16:00;2.20;99.90
28520;DHT22;15732;48.534;20.382;2023-12-20T10:18:31;2.20;99.90
28520;DHT22;15732;48.534;20.382;2023-12-20T10:20:58;2.30;99.90
28520;DHT22;15732;48.534;20.382;2023-12-20T10:23:30;2.30;99.90
28520;DHT22;15732;48.534;20.382;2023-12-20T10:25:58;2.30;99.90
28520;DHT22;15732;48.534;20.382;2023-12-20T10:28:25;2.30;99.90
28520;DHT22;15732;48.534;20.382;2023-12-20T10:31:26;2.40;99.90
28520;DHT22;15732;48.534;20.382;2023-12-20T10:33:55;2.40;99.90
28520;DHT22;15732;48.534;20.382;2023-12-20T10:36:25;2.40;99.90
28520;DHT22;15732;48.534;20.382;2023-12-20T10:38:56;2.40;99.90
28520;DHT22;15732;48.534;20.382;2023-12-20T10:41:29;2.40;99.90
28520;DHT22;15732;48.534;20.382;2023-12-20T10:44:02;2.40;99.90
28520;DHT22;15732;48.534;20.382;2023-12-20T10:46:31;2.50;99.90
28520;DHT22;15732;48.534;20.382;2023-12-20T10:49:05;2.50;99.90
28520;DHT22;15732;48.534;20.382;2023-12-20T10:51:36;2.50;99.90
28520;DHT22;15732;48.534;20.382;2023-12-20T10:54:08;2.50;99.90
28520;DHT22;15732;48.534;20.382;2023-12-20T10:56:40;2.50;99.90
28520;DHT22;15732;48.534;20.382;2023-12-20T10:59:11;2.50;99.90
28520;DHT22;15732;48.534;20.382;2023-12-20T11:01:44;2.60;99.90
28520;DHT22;15732;48.534;20.382;2023-12-20T11:04:20;2.60;99.90
28520;DHT22;15732;48.534;20.382;2023-12-20T11:06:58;2.60;99.90
28520;DHT22;15732;48.534;20.382;2023-12-20T11:09:38;2.60;99.90
28520;DHT22;15732;48.534;20.382;2023-12-20T11:12:18;2.60;99.90
28520;DHT22;15732;48.534;20.382;2023-12-20T11:14:48;2.60;99.90
28520;DHT22;15732;48.534;20.382;2023-12-20T11:17:19;2.50;99.90
28520;DHT22;15732;48.534;20.382;2023-12-20T11:22:20;2.50;99.90
28520;DHT22;15732;48.534;20.382;2023-12-20T11:24:48;2.60;99.90
28520;DHT22;15732;48.534;20.382;2023-12-20T11:27:19;2.60;99.90
28520;DHT22;15732;48.534;20.382;2023-12-20T11:29:53;2.60;99.90
28520;DHT22;15732;48.534;20.382;2023-12-20T11:37:38;2.70;99.90
28520;DHT22;15732;48.534;20.382;2023-12-20T11:40:12;2.70;99.90
28520;DHT22;15732;48.534;20.382;2023-12-20T11:42:45;2.70;99.90
28520;DHT22;15732;48.534;20.382;2023-12-20T11:45:19;2.70;99.90
28520;DHT22;15732;48.534;20.382;2023-12-20T11:47:49;2.70;99.90
28520;DHT22;15732;48.534;20.382;2023-12-20T11:50:23;2.70;99.90
28520;DHT22;15732;48.534;20.382;2023-12-20T11:52:52;2.70;99.90
28520;DHT22;15732;48.534;20.382;2023-12-20T11:55:19;2.80;99.90
28520;DHT22;15732;48.534;20.382;2023-12-20T11:57:51;2.70;99.90
28520;DHT22;15732;48.534;20.382;2023-12-20T12:00:18;2.70;99.90
28520;DHT22;15732;48.534;20.382;2023-12-20T12:03:06;2.70;99.90
28520;DHT22;15732;48.534;20.382;2023-12-20T12:05:34;2.60;99.90
28520;DHT22;15732;48.534;20.382;2023-12-20T12:08:03;2.60;99.90
28520;DHT22;15732;48.534;20.382;2023-12-20T12:10:31;2.60;99.90
28520;DHT22;15732;48.534;20.382;2023-12-20T12:13:02;2.60;99.90
28520;DHT22;15732;48.534;20.382;2023-12-20T12:15:34;2.60;99.90
28520;DHT22;15732;48.534;20.382;2023-12-20T12:18:01;2.60;99.90
28520;DHT22;15732;48.534;20.382;2023-12-20T12:20:29;2.60;99.90
28520;DHT22;15732;48.534;20.382;2023-12-20T12:23:03;2.60;99.90
28520;DHT22;15732;48.534;20.382;2023-12-20T12:25:34;2.60;99.90
28520;DHT22;15732;48.534;20.382;2023-12-20T12:28:02;2.70;99.90
28520;DHT22;15732;48.534;20.382;2023-12-20T12:30:29;2.60;99.90
28520;DHT22;15732;48.534;20.382;2023-12-20T12:32:57;2.60;99.90
28520;DHT22;15732;48.534;20.382;2023-12-20T12:35:27;2.60;99.90
28520;DHT22;15732;48.534;20.382;2023-12-20T12:37:55;2.60;99.90
28520;DHT22;15732;48.534;20.382;2023-12-20T12:40:22;2.60;99.90
28520;DHT22;15732;48.534;20.382;2023-12-20T12:42:49;2.60;99.90
28520;DHT22;15732;48.534;20.382;2023-12-20T12:45:17;2.60;99.90
28520;DHT22;15732;48.534;20.382;2023-12-20T12:47:44;2.70;99.90
28520;DHT22;15732;48.534;20.382;2023-12-20T12:50:15;2.70;99.90
28520;DHT22;15732;48.534;20.382;2023-12-20T12:52:46;2.70;99.90
28520;DHT22;15732;48.534;20.382;2023-12-20T12:55:14;2.70;99.90
28520;DHT22;15732;48.534;20.382;2023-12-20T12:57:41;2.70;99.90
28520;DHT22;15732;48.534;20.382;2023-12-20T13:00:10;2.70;99.90
28520;DHT22;15732;48.534;20.382;2023-12-20T13:02:38;2.70;99.90
28520;DHT22;15732;48.534;20.382;2023-12-20T13:05:08;2.70;99.90
28520;DHT22;15732;48.534;20.382;2023-12-20T13:07:35;2.70;99.90
28520;DHT22;15732;48.534;20.382;2023-12-20T13:10:02;2.70;99.90
28520;DHT22;15732;48.534;20.382;2023-12-20T13:12:31;2.70;99.90
28520;DHT22;15732;48.534;20.382;2023-12-20T13:15:01;2.70;99.90
28520;DHT22;15732;48.534;20.382;2023-12-20T13:17:30;2.70;99.90
28520;DHT22;15732;48.534;20.382;2023-12-20T13:20:01;2.80;99.90
28520;DHT22;15732;48.534;20.382;2023-12-20T13:22:29;2.80;99.90
28520;DHT22;15732;48.534;20.382;2023-12-20T13:24:57;2.80;99.90
28520;DHT22;15732;48.534;20.382;2023-12-20T13:27:28;2.80;99.90
28520;DHT22;15732;48.534;20.382;2023-12-20T13:29:59;2.80;99.90
28520;DHT22;15732;48.534;20.382;2023-12-20T13:32:27;2.80;99.90
28520;DHT22;15732;48.534;20.382;2023-12-20T13:34:54;2.80;99.90
28520;DHT22;15732;48.534;20.382;2023-12-20T13:37:22;2.80;99.90
28520;DHT22;15732;48.534;20.382;2023-12-20T13:39:53;2.80;99.90
28520;DHT22;15732;48.534;20.382;2023-12-20T13:42:24;2.70;99.90
28520;DHT22;15732;48.534;20.382;2023-12-20T13:44:53;2.70;99.90
28520;DHT22;15732;48.534;20.382;2023-12-20T13:47:20;2.70;99.90
28520;DHT22;15732;48.534;20.382;2023-12-20T13:49:51;2.70;99.90
28520;DHT22;15732;48.534;20.382;2023-12-20T13:52:18;2.80;99.90
28520;DHT22;15732;48.534;20.382;2023-12-20T13:54:45;2.80;99.90
28520;DHT22;15732;48.534;20.382;2023-12-20T13:57:13;2.80;99.90
28520;DHT22;15732;48.534;20.382;2023-12-20T13:59:40;2.80;99.90
28520;DHT22;15732;48.534;20.382;2023-12-20T14:02:12;2.90;99.90
28520;DHT22;15732;48.534;20.382;2023-12-20T14:04:42;2.80;99.90
28520;DHT22;15732;48.534;20.382;2023-12-20T14:07:11;2.80;99.90
28520;DHT22;15732;48.534;20.382;2023-12-20T14:09:41;2.80;99.90
28520;DHT22;15732;48.534;20.382;2023-12-20T14:12:15;2.80;99.90
28520;DHT22;15732;48.534;20.382;2023-12-20T14:14:42;2.80;99.90
28520;DHT22;15732;48.534;20.382;2023-12-20T14:17:11;2.80;99.90
28520;DHT22;15732;48.534;20.382;2023-12-20T14:19:38;2.80;99.90
28520;DHT22;15732;48.534;20.382;2023-12-20T14:22:06;2.80;99.90
28520;DHT22;15732;48.534;20.382;2023-12-20T14:24:34;2.90;99.90
28520;DHT22;15732;48.534;20.382;2023-12-20T14:27:01;2.90;99.90
28520;DHT22;15732;48.534;20.382;2023-12-20T14:29:29;2.90;99.90
28520;DHT22;15732;48.534;20.382;2023-12-20T14:31:56;2.90;99.90
28520;DHT22;15732;48.534;20.382;2023-12-20T14:34:27;2.90;99.90
28520;DHT22;15732;48.534;20.382;2023-12-20T14:36:58;2.90;99.90
28520;DHT22;15732;48.534;20.382;2023-12-20T14:39:29;2.90;99.90
28520;DHT22;15732;48.534;20.382;2023-12-20T14:41:56;2.80;99.90
28520;DHT22;15732;48.534;20.382;2023-12-20T14:44:24;2.80;99.90
28520;DHT22;15732;48.534;20.382;2023-12-20T14:46:51;2.80;99.90
28520;DHT22;15732;48.534;20.382;2023-12-20T14:49:19;2.80;99.90
28520;DHT22;15732;48.534;20.382;2023-12-20T14:51:46;2.80;99.90
28520;DHT22;15732;48.534;20.382;2023-12-20T14:54:14;2.80;99.90
28520;DHT22;15732;48.534;20.382;2023-12-20T14:56:42;2.80;99.90
28520;DHT22;15732;48.534;20.382;2023-12-20T14:59:09;2.80;99.90
28520;DHT22;15732;48.534;20.382;2023-12-20T15:01:43;2.80;99.90
28520;DHT22;15732;48.534;20.382;2023-12-20T15:04:14;2.80;99.90
28520;DHT22;15732;48.534;20.382;2023-12-20T15:06:41;2.80;99.90
28520;DHT22;15732;48.534;20.382;2023-12-20T15:09:14;2.80;99.90
28520;DHT22;15732;48.534;20.382;2023-12-20T15:11:41;2.80;99.90
28520;DHT22;15732;48.534;20.382;2023-12-20T15:14:09;2.80;99.90
28520;DHT22;15732;48.534;20.382;2023-12-20T15:16:36;2.70;99.90
28520;DHT22;15732;48.534;20.382;2023-12-20T15:19:07;2.70;99.90
28520;DHT22;15732;48.534;20.382;2023-12-20T15:21:35;2.80;99.90
28520;DHT22;15732;48.534;20.382;2023-12-20T15:24:10;2.70;99.90
28520;DHT22;15732;48.534;20.382;2023-12-20T15:26:46;2.70;99.90
28520;DHT22;15732;48.534;20.382;2023-12-20T15:29:13;2.70;99.90
28520;DHT22;15732;48.534;20.382;2023-12-20T15:31:46;2.70;99.90
28520;DHT22;15732;48.534;20.382;2023-12-20T15:34:15;2.70;99.90
28520;DHT22;15732;48.534;20.382;2023-12-20T15:36:43;2.60;99.90
28520;DHT22;15732;48.534;20.382;2023-12-20T15:39:14;2.60;99.90
28520;DHT22;15732;48.534;20.382;2023-12-20T15:41:41;2.60;99.90
28520;DHT22;15732;48.534;20.382;2023-12-20T15:44:13;2.60;99.90
28520;DHT22;15732;48.534;20.382;2023-12-20T15:46:44;2.60;99.90
28520;DHT22;15732;48.534;20.382;2023-12-20T15:49:11;2.70;99.90
28520;DHT22;15732;48.534;20.382;2023-12-20T15:51:39;2.70;99.90